sensor_id;sensor_type;location;lat;lon;timestamp;temperature;humidity
10314;DHT22;5202;49.138;10.090;2023-05-16T00:00:19;8.70;99.90
10314;DHT22;5202;49.138;10.090;2023-05-16T00:02:47;8.70;99.90
10314;DHT22;5202;49.138;10.090;2023-05-16T00:05:26;8.70;99.90
10314;DHT22;5202;49.138;10.090;2023-05-16T00:07:55;8.60;99.90
10314;DHT22;5202;49.138;10.090;2023-05-16T00:10:23;8.50;99.90
10314;DHT22;5202;49.138;10.090;2023-05-16T00:12:53;8.50;99.90
10314;DHT22;5202;49.138;10.090;2023-05-16T00:15:22;8.60;99.90
10314;DHT22;5202;49.138;10.090;2023-05-16T00:17:50;8.60;99.90
10314;DHT22;5202;49.138;10.090;2023-05-16T00:20:23;8.70;99.90
10314;DHT22;5202;49.138;10.090;2023-05-16T00:22:53;8.60;99.90
10314;DHT22;5202;49.138;10.090;2023-05-16T00:25:22;8.60;99.90
10314;DHT22;5202;49.138;10.090;2023-05-16T00:27:50;8.60;99.90
10314;DHT22;5202;49.138;10.090;2023-05-16T00:30:20;8.50;99.90
10314;DHT22;5202;49.138;10.090;2023-05-16T00:32:51;8.40;99.90
10314;DHT22;5202;49.138;10.090;2023-05-16T00:35:19;8.40;99.90
10314;DHT22;5202;49.138;10.090;2023-05-16T00:37:49;8.30;99.90
10314;DHT22;5202;49.138;10.090;2023-05-16T00:40:17;8.30;99.90
10314;DHT22;5202;49.138;10.090;2023-05-16T00:42:46;8.30;99.90
10314;DHT22;5202;49.138;10.090;2023-05-16T00:45:14;8.20;99.90
10314;DHT22;5202;49.138;10.090;2023-05-16T00:47:44;8.20;99.90
10314;DHT22;5202;49.138;10.090;2023-05-16T00:50:12;8.20;99.90
10314;DHT22;5202;49.138;10.090;2023-05-16T00:52:41;8.10;99.90
10314;DHT22;5202;49.138;10.090;2023-05-16T00:55:09;8.10;99.90
10314;DHT22;5202;49.138;10.090;2023-05-16T00:57:40;8.00;99.90
10314;DHT22;5202;49.138;10.090;2023-05-16T01:00:08;7.90;99.90
10314;DHT22;5202;49.138;10.090;2023-05-16T01:02:37;7.90;99.90
10314;DHT22;5202;49.138;10.090;2023-05-16T01:05:08;7.90;99.90
10314;DHT22;5202;49.138;10.090;2023-05-16T01:07:36;8.00;99.90
10314;DHT22;5202;49.138;10.090;2023-05-16T01:10:07;8.00;99.90
10314;DHT22;5202;49.138;10.090;2023-05-16T01:12:42;8.00;99.90
10314;DHT22;5202;49.138;10.090;2023-05-16T01:15:20;7.90;99.90
10314;DHT22;5202;49.138;10.090;2023-05-16T01:17:54;7.90;99.90
10314;DHT22;5202;49.138;10.090;2023-05-16T01:20:34;7.80;99.90
10314;DHT22;5202;49.138;10.090;2023-05-16T01:23:18;7.80;99.90
10314;DHT22;5202;49.138;10.090;2023-05-16T01:26:15;7.70;99.90
10314;DHT22;5202;49.138;10.090;2023-05-16T01:28:45;7.60;99.90
10314;DHT22;5202;49.138;10.090;2023-05-16T01:31:13;7.50;99.90
10314;DHT22;5202;49.138;10.090;2023-05-16T01:33:43;7.50;99.90
10314;DHT22;5202;49.138;10.090;2023-05-16T01:36:19;7.50;99.90
10314;DHT22;5202;49.138;10.090;2023-05-16T01:38:58;7.60;99.90
10314;DHT22;5202;49.138;10.090;2023-05-16T01:41:40;7.60;99.90
10314;DHT22;5202;49.138;10.090;2023-05-16T01:44:17;7.50;99.90
10314;DHT22;5202;49.138;10.090;2023-05-16T01:46:53;7.50;99.90
10314;DHT22;5202;49.138;10.090;2023-05-16T01:49:30;7.50;99.90
10314;DHT22;5202;49.138;10.090;2023-05-16T01:52:05;7.50;99.90
10314;DHT22;5202;49.138;10.090;2023-05-16T01:54:37;7.50;99.90
10314;DHT22;5202;49.138;10.090;2023-05-16T01:57:08;7.40;99.90
10314;DHT22;5202;49.138;10.090;2023-05-16T01:59:37;7.30;99.90
10314;DHT22;5202;49.138;10.090;2023-05-16T02:02:06;7.20;99.90
10314;DHT22;5202;49.138;10.090;2023-05-16T02:04:36;7.20;99.90
10314;DHT22;5202;49.138;10.090;2023-05-16T02:07:05;7.30;99.90
10314;DHT22;5202;49.138;10.090;2023-05-16T02:09:33;7.20;99.90
10314;DHT22;5202;49.138;10.090;2023-05-16T02:12:02;7.20;99.90
10314;DHT22;5202;49.138;10.090;2023-05-16T02:14:32;7.20;99.90
10314;DHT22;5202;49.138;10.090;2023-05-16T02:17:00;7.30;99.90
10314;DHT22;5202;49.138;10.090;2023-05-16T02:19:28;7.30;99.90
10314;DHT22;5202;49.138;10.090;2023-05-16T02:21:57;7.30;99.90
10314;DHT22;5202;49.138;10.090;2023-05-16T02:24:25;7.30;99.90
10314;DHT22;5202;49.138;10.090;2023-05-16T02:26:54;7.40;99.90
10314;DHT22;5202;49.138;10.090;2023-05-16T02:29:23;7.30;99.90
10314;DHT22;5202;49.138;10.090;2023-05-16T02:31:52;7.20;99.90
10314;DHT22;5202;49.138;10.090;2023-05-16T02:34:20;7.10;99.90
10314;DHT22;5202;49.138;10.090;2023-05-16T02:36:48;7.10;99.90
10314;DHT22;5202;49.138;10.090;2023-05-16T02:39:17;7.00;99.90
10314;DHT22;5202;49.138;10.090;2023-05-16T02:41:45;6.90;99.90
10314;DHT22;5202;49.138;10.090;2023-05-16T02:44:14;6.90;99.90
10314;DHT22;5202;49.138;10.090;2023-05-16T02:46:42;6.90;99.90
10314;DHT22;5202;49.138;10.090;2023-05-16T02:49:12;6.90;99.90
10314;DHT22;5202;49.138;10.090;2023-05-16T02:51:40;6.90;99.90
10314;DHT22;5202;49.138;10.090;2023-05-16T02:54:08;6.90;99.90
10314;DHT22;5202;49.138;10.090;2023-05-16T02:56:37;7.00;99.90
10314;DHT22;5202;49.138;10.090;2023-05-16T02:59:05;7.00;99.90
10314;DHT22;5202;49.138;10.090;2023-05-16T03:01:33;6.90;99.90
10314;DHT22;5202;49.138;10.090;2023-05-16T03:04:03;6.90;99.90
10314;DHT22;5202;49.138;10.090;2023-05-16T03:06:33;6.90;99.90
10314;DHT22;5202;49.138;10.090;2023-05-16T03:09:01;6.80;99.90
10314;DHT22;5202;49.138;10.090;2023-05-16T03:11:29;6.70;99.90
10314;DHT22;5202;49.138;10.090;2023-05-16T03:13:58;6.70;99.90
10314;DHT22;5202;49.138;10.090;2023-05-16T03:16:27;6.70;99.90
10314;DHT22;5202;49.138;10.090;2023-05-16T03:18:56;6.60;99.90
10314;DHT22;5202;49.138;10.090;2023-05-16T03:21:25;6.60;99.90
10314;DHT22;5202;49.138;10.090;2023-05-16T03:23:55;6.60;99.90
10314;DHT22;5202;49.138;10.090;2023-05-16T03:26:24;6.70;99.90
10314;DHT22;5202;49.138;10.090;2023-05-16T03:28:52;6.70;99.90
10314;DHT22;5202;49.138;10.090;2023-05-16T03:31:20;6.70;99.90
10314;DHT22;5202;49.138;10.090;2023-05-16T03:33:48;6.80;99.90
10314;DHT22;5202;49.138;10.090;2023-05-16T03:36:19;6.80;99.90
10314;DHT22;5202;49.138;10.090;2023-05-16T03:38:48;6.80;99.90
10314;DHT22;5202;49.138;10.090;2023-05-16T03:41:17;6.80;99.90
10314;DHT22;5202;49.138;10.090;2023-05-16T03:43:47;6.80;99.90
10314;DHT22;5202;49.138;10.090;2023-05-16T03:46:15;6.90;99.90
10314;DHT22;5202;49.138;10.090;2023-05-16T03:48:43;6.90;99.90
10314;DHT22;5202;49.138;10.090;2023-05-16T03:51:12;6.90;99.90
10314;DHT22;5202;49.138;10.090;2023-05-16T03:53:40;7.00;99.90
10314;DHT22;5202;49.138;10.090;2023-05-16T03:56:08;6.90;99.90
10314;DHT22;5202;49.138;10.090;2023-05-16T03:58:38;7.00;99.90
10314;DHT22;5202;49.138;10.090;2023-05-16T04:01:06;7.00;99.90
10314;DHT22;5202;49.138;10.090;2023-05-16T04:03:34;7.10;99.90
10314;DHT22;5202;49.138;10.090;2023-05-16T04:06:09;7.10;99.90
10314;DHT22;5202;49.138;10.090;2023-05-16T04:08:37;7.10;99.90
10314;DHT22;5202;49.138;10.090;2023-05-16T04:11:06;7.20;99.90
10314;DHT22;5202;49.138;10.090;2023-05-16T04:13:35;7.20;99.90
10314;DHT22;5202;49.138;10.090;2023-05-16T04:16:05;7.30;99.90
10314;DHT22;5202;49.138;10.090;2023-05-16T04:18:34;7.30;99.90
10314;DHT22;5202;49.138;10.090;2023-05-16T04:21:03;7.40;99.90
10314;DHT22;5202;49.138;10.090;2023-05-16T04:23:31;7.30;99.90
10314;DHT22;5202;49.138;10.090;2023-05-16T04:26:00;7.40;99.90
10314;DHT22;5202;49.138;10.090;2023-05-16T04:28:30;7.30;99.90
10314;DHT22;5202;49.138;10.090;2023-05-16T04:31:00;7.40;99.90
10314;DHT22;5202;49.138;10.090;2023-05-16T04:33:30;7.30;99.90
10314;DHT22;5202;49.138;10.090;2023-05-16T04:35:58;7.40;99.90
10314;DHT22;5202;49.138;10.090;2023-05-16T04:38:27;7.50;99.90
10314;DHT22;5202;49.138;10.090;2023-05-16T04:40:59;7.70;99.90
10314;DHT22;5202;49.138;10.090;2023-05-16T04:43:27;7.80;99.90
10314;DHT22;5202;49.138;10.090;2023-05-16T04:45:56;7.80;99.90
10314;DHT22;5202;49.138;10.090;2023-05-16T04:48:25;7.90;99.90
10314;DHT22;5202;49.138;10.090;2023-05-16T04:51:19;7.90;99.90
10314;DHT22;5202;49.138;10.090;2023-05-16T04:53:48;7.90;99.90
10314;DHT22;5202;49.138;10.090;2023-05-16T04:56:16;8.00;99.90
10314;DHT22;5202;49.138;10.090;2023-05-16T04:58:44;8.10;99.90
10314;DHT22;5202;49.138;10.090;2023-05-16T05:01:12;8.10;99.90
10314;DHT22;5202;49.138;10.090;2023-05-16T05:03:48;8.20;99.90
10314;DHT22;5202;49.138;10.090;2023-05-16T05:06:16;8.20;99.90
10314;DHT22;5202;49.138;10.090;2023-05-16T05:08:45;8.30;99.90
10314;DHT22;5202;49.138;10.090;2023-05-16T05:11:14;8.40;99.90
10314;DHT22;5202;49.138;10.090;2023-05-16T05:13:42;8.50;99.90
10314;DHT22;5202;49.138;10.090;2023-05-16T05:16:10;8.50;99.90
10314;DHT22;5202;49.138;10.090;2023-05-16T05:18:39;8.60;99.90
10314;DHT22;5202;49.138;10.090;2023-05-16T05:21:07;8.60;99.90
10314;DHT22;5202;49.138;10.090;2023-05-16T05:23:36;8.60;99.90
10314;DHT22;5202;49.138;10.090;2023-05-16T05:26:05;8.60;99.90
10314;DHT22;5202;49.138;10.090;2023-05-16T05:28:33;8.70;99.90
10314;DHT22;5202;49.138;10.090;2023-05-16T05:31:03;8.80;99.90
10314;DHT22;5202;49.138;10.090;2023-05-16T05:33:32;8.90;99.90
10314;DHT22;5202;49.138;10.090;2023-05-16T05:36:00;9.00;99.90
10314;DHT22;5202;49.138;10.090;2023-05-16T05:38:30;9.10;99.90
10314;DHT22;5202;49.138;10.090;2023-05-16T05:40:58;9.20;99.90
10314;DHT22;5202;49.138;10.090;2023-05-16T05:43:28;9.20;99.90
10314;DHT22;5202;49.138;10.090;2023-05-16T05:45:56;9.40;99.90
10314;DHT22;5202;49.138;10.090;2023-05-16T05:48:24;9.50;99.90
10314;DHT22;5202;49.138;10.090;2023-05-16T05:50:54;9.50;99.90
10314;DHT22;5202;49.138;10.090;2023-05-16T05:53:22;9.60;99.90
10314;DHT22;5202;49.138;10.090;2023-05-16T05:55:51;9.70;99.90
10314;DHT22;5202;49.138;10.090;2023-05-16T05:58:23;9.70;99.90
10314;DHT22;5202;49.138;10.090;2023-05-16T06:00:54;9.80;99.90
10314;DHT22;5202;49.138;10.090;2023-05-16T06:03:22;9.80;99.90
10314;DHT22;5202;49.138;10.090;2023-05-16T06:06:01;9.90;99.90
10314;DHT22;5202;49.138;10.090;2023-05-16T06:08:29;9.90;99.90
10314;DHT22;5202;49.138;10.090;2023-05-16T06:10:58;10.00;99.90
10314;DHT22;5202;49.138;10.090;2023-05-16T06:13:26;10.00;99.90
10314;DHT22;5202;49.138;10.090;2023-05-16T06:15:56;10.00;99.90
10314;DHT22;5202;49.138;10.090;2023-05-16T06:18:25;10.10;99.90
10314;DHT22;5202;49.138;10.090;2023-05-16T06:20:53;10.20;99.90
10314;DHT22;5202;49.138;10.090;2023-05-16T06:23:21;10.30;99.90
10314;DHT22;5202;49.138;10.090;2023-05-16T06:25:49;10.40;99.90
10314;DHT22;5202;49.138;10.090;2023-05-16T06:28:18;10.40;99.90
10314;DHT22;5202;49.138;10.090;2023-05-16T06:30:46;10.50;99.90
10314;DHT22;5202;49.138;10.090;2023-05-16T06:33:18;10.60;99.90
10314;DHT22;5202;49.138;10.090;2023-05-16T06:35:46;10.70;99.90
10314;DHT22;5202;49.138;10.090;2023-05-16T06:38:14;10.80;99.90
10314;DHT22;5202;49.138;10.090;2023-05-16T06:40:43;11.00;99.90
10314;DHT22;5202;49.138;10.090;2023-05-16T06:43:11;11.10;99.90
10314;DHT22;5202;49.138;10.090;2023-05-16T06:45:40;11.30;99.90
10314;DHT22;5202;49.138;10.090;2023-05-16T06:48:08;11.50;99.90
10314;DHT22;5202;49.138;10.090;2023-05-16T06:50:38;11.70;99.90
10314;DHT22;5202;49.138;10.090;2023-05-16T06:53:06;11.90;99.90
10314;DHT22;5202;49.138;10.090;2023-05-16T06:55:35;12.00;99.90
10314;DHT22;5202;49.138;10.090;2023-05-16T06:58:03;12.20;99.90
10314;DHT22;5202;49.138;10.090;2023-05-16T07:00:31;12.30;99.90
10314;DHT22;5202;49.138;10.090;2023-05-16T07:02:59;12.20;99.90
10314;DHT22;5202;49.138;10.090;2023-05-16T07:05:28;12.20;99.90
10314;DHT22;5202;49.138;10.090;2023-05-16T07:07:57;12.20;99.90
10314;DHT22;5202;49.138;10.090;2023-05-16T07:10:26;12.20;99.90
10314;DHT22;5202;49.138;10.090;2023-05-16T07:12:58;12.10;99.90
10314;DHT22;5202;49.138;10.090;2023-05-16T07:15:27;12.10;99.90
10314;DHT22;5202;49.138;10.090;2023-05-16T07:17:56;12.20;99.90
10314;DHT22;5202;49.138;10.090;2023-05-16T07:20:24;12.30;99.90
10314;DHT22;5202;49.138;10.090;2023-05-16T07:22:52;12.50;99.90
10314;DHT22;5202;49.138;10.090;2023-05-16T07:25:24;12.60;99.90
10314;DHT22;5202;49.138;10.090;2023-05-16T07:27:53;12.60;99.90
10314;DHT22;5202;49.138;10.090;2023-05-16T07:30:22;12.60;99.90
10314;DHT22;5202;49.138;10.090;2023-05-16T07:32:50;12.50;99.90
10314;DHT22;5202;49.138;10.090;2023-05-16T07:35:19;12.50;99.90
10314;DHT22;5202;49.138;10.090;2023-05-16T07:37:47;12.40;99.90
10314;DHT22;5202;49.138;10.090;2023-05-16T07:40:16;12.50;99.90
10314;DHT22;5202;49.138;10.090;2023-05-16T07:42:48;12.50;99.90
10314;DHT22;5202;49.138;10.090;2023-05-16T07:45:16;12.60;99.90
10314;DHT22;5202;49.138;10.090;2023-05-16T07:47:44;12.60;99.90
10314;DHT22;5202;49.138;10.090;2023-05-16T07:50:13;12.50;99.90
10314;DHT22;5202;49.138;10.090;2023-05-16T07:52:41;12.50;99.90
10314;DHT22;5202;49.138;10.090;2023-05-16T07:55:09;12.40;99.90
10314;DHT22;5202;49.138;10.090;2023-05-16T07:57:38;12.30;99.90
10314;DHT22;5202;49.138;10.090;2023-05-16T08:00:09;12.30;99.90
10314;DHT22;5202;49.138;10.090;2023-05-16T08:02:38;12.20;99.90
10314;DHT22;5202;49.138;10.090;2023-05-16T08:05:07;12.10;99.90
10314;DHT22;5202;49.138;10.090;2023-05-16T08:07:37;12.00;99.90
10314;DHT22;5202;49.138;10.090;2023-05-16T08:10:06;11.90;99.90
10314;DHT22;5202;49.138;10.090;2023-05-16T08:12:38;11.80;99.90
10314;DHT22;5202;49.138;10.090;2023-05-16T08:15:08;11.80;99.90
10314;DHT22;5202;49.138;10.090;2023-05-16T08:17:37;11.70;99.90
10314;DHT22;5202;49.138;10.090;2023-05-16T08:20:07;11.70;99.90
10314;DHT22;5202;49.138;10.090;2023-05-16T08:22:35;11.70;99.90
10314;DHT22;5202;49.138;10.090;2023-05-16T08:25:04;11.70;99.90
10314;DHT22;5202;49.138;10.090;2023-05-16T08:27:34;11.70;99.90
10314;DHT22;5202;49.138;10.090;2023-05-16T08:30:03;11.70;99.90
10314;DHT22;5202;49.138;10.090;2023-05-16T08:32:34;11.70;99.90
10314;DHT22;5202;49.138;10.090;2023-05-16T08:35:03;11.70;99.90
10314;DHT22;5202;49.138;10.090;2023-05-16T08:37:32;11.80;99.90
10314;DHT22;5202;49.138;10.090;2023-05-16T08:40:00;11.70;99.90
10314;DHT22;5202;49.138;10.090;2023-05-16T08:42:30;11.70;99.90
10314;DHT22;5202;49.138;10.090;2023-05-16T08:45:00;11.80;99.90
10314;DHT22;5202;49.138;10.090;2023-05-16T08:47:30;11.80;99.90
10314;DHT22;5202;49.138;10.090;2023-05-16T08:50:02;11.80;99.90
10314;DHT22;5202;49.138;10.090;2023-05-16T08:52:31;11.80;99.90
10314;DHT22;5202;49.138;10.090;2023-05-16T08:55:02;11.80;99.90
10314;DHT22;5202;49.138;10.090;2023-05-16T08:57:38;11.80;99.90
10314;DHT22;5202;49.138;10.090;2023-05-16T09:00:07;11.90;99.90
10314;DHT22;5202;49.138;10.090;2023-05-16T09:02:39;11.80;99.90
10314;DHT22;5202;49.138;10.090;2023-05-16T09:05:11;11.80;99.90
10314;DHT22;5202;49.138;10.090;2023-05-16T09:07:40;11.80;99.90
10314;DHT22;5202;49.138;10.090;2023-05-16T09:10:09;11.80;99.90
10314;DHT22;5202;49.138;10.090;2023-05-16T09:12:39;11.70;99.90
10314;DHT22;5202;49.138;10.090;2023-05-16T09:15:09;11.60;99.90
10314;DHT22;5202;49.138;10.090;2023-05-16T09:17:39;11.50;99.90
10314;DHT22;5202;49.138;10.090;2023-05-16T09:20:13;11.40;99.90
10314;DHT22;5202;49.138;10.090;2023-05-16T09:22:50;11.40;99.90
10314;DHT22;5202;49.138;10.090;2023-05-16T09:25:20;11.50;99.90
10314;DHT22;5202;49.138;10.090;2023-05-16T09:27:58;11.40;99.90
10314;DHT22;5202;49.138;10.090;2023-05-16T09:30:30;11.30;99.90
10314;DHT22;5202;49.138;10.090;2023-05-16T09:32:59;11.30;99.90
10314;DHT22;5202;49.138;10.090;2023-05-16T09:35:30;11.30;99.90
10314;DHT22;5202;49.138;10.090;2023-05-16T09:38:01;11.30;99.90
10314;DHT22;5202;49.138;10.090;2023-05-16T09:40:30;11.30;99.90
10314;DHT22;5202;49.138;10.090;2023-05-16T09:43:02;11.40;99.90
10314;DHT22;5202;49.138;10.090;2023-05-16T09:45:32;11.40;99.90
10314;DHT22;5202;49.138;10.090;2023-05-16T09:48:03;11.40;99.90
10314;DHT22;5202;49.138;10.090;2023-05-16T09:50:35;11.30;99.90
10314;DHT22;5202;49.138;10.090;2023-05-16T09:53:04;11.30;99.90
10314;DHT22;5202;49.138;10.090;2023-05-16T09:55:33;11.30;99.90
10314;DHT22;5202;49.138;10.090;2023-05-16T09:58:01;11.30;99.90
10314;DHT22;5202;49.138;10.090;2023-05-16T10:00:31;11.40;99.90
10314;DHT22;5202;49.138;10.090;2023-05-16T10:03:01;11.30;99.90
10314;DHT22;5202;49.138;10.090;2023-05-16T10:05:34;11.30;99.90
10314;DHT22;5202;49.138;10.090;2023-05-16T10:08:03;11.40;99.90
10314;DHT22;5202;49.138;10.090;2023-05-16T10:10:35;11.40;99.90
10314;DHT22;5202;49.138;10.090;2023-05-16T10:13:05;11.50;99.90
10314;DHT22;5202;49.138;10.090;2023-05-16T10:15:36;11.50;99.90
10314;DHT22;5202;49.138;10.090;2023-05-16T10:18:06;11.60;99.90
10314;DHT22;5202;49.138;10.090;2023-05-16T10:20:41;11.70;99.90
10314;DHT22;5202;49.138;10.090;2023-05-16T10:23:16;11.70;99.90
10314;DHT22;5202;49.138;10.090;2023-05-16T10:25:47;11.70;99.90
10314;DHT22;5202;49.138;10.090;2023-05-16T10:28:15;11.80;99.90
10314;DHT22;5202;49.138;10.090;2023-05-16T10:30:45;11.90;99.90
10314;DHT22;5202;49.138;10.090;2023-05-16T10:33:15;12.00;99.90
10314;DHT22;5202;49.138;10.090;2023-05-16T10:35:45;12.10;99.90
10314;DHT22;5202;49.138;10.090;2023-05-16T10:38:19;12.10;99.90
10314;DHT22;5202;49.138;10.090;2023-05-16T10:40:50;12.20;99.90
10314;DHT22;5202;49.138;10.090;2023-05-16T10:43:23;12.30;99.90
10314;DHT22;5202;49.138;10.090;2023-05-16T10:45:56;12.30;99.90
10314;DHT22;5202;49.138;10.090;2023-05-16T10:48:29;12.40;99.90
10314;DHT22;5202;49.138;10.090;2023-05-16T10:51:00;12.50;99.90
10314;DHT22;5202;49.138;10.090;2023-05-16T10:53:31;12.60;99.90
10314;DHT22;5202;49.138;10.090;2023-05-16T10:56:08;12.70;99.90
10314;DHT22;5202;49.138;10.090;2023-05-16T10:58:45;12.80;99.90
10314;DHT22;5202;49.138;10.090;2023-05-16T11:01:21;12.90;99.90
10314;DHT22;5202;49.138;10.090;2023-05-16T11:04:08;12.90;99.90
10314;DHT22;5202;49.138;10.090;2023-05-16T11:06:48;13.00;99.90
10314;DHT22;5202;49.138;10.090;2023-05-16T11:09:20;13.00;99.90
10314;DHT22;5202;49.138;10.090;2023-05-16T11:12:09;13.00;99.90
10314;DHT22;5202;49.138;10.090;2023-05-16T11:14:38;13.00;99.90
10314;DHT22;5202;49.138;10.090;2023-05-16T11:17:10;12.90;99.90
10314;DHT22;5202;49.138;10.090;2023-05-16T11:19:42;13.00;99.90
10314;DHT22;5202;49.138;10.090;2023-05-16T11:22:22;13.10;99.90
10314;DHT22;5202;49.138;10.090;2023-05-16T11:24:54;13.10;99.90
10314;DHT22;5202;49.138;10.090;2023-05-16T11:27:25;13.20;99.90
10314;DHT22;5202;49.138;10.090;2023-05-16T11:29:58;13.30;99.90
10314;DHT22;5202;49.138;10.090;2023-05-16T11:32:32;13.50;99.90
10314;DHT22;5202;49.138;10.090;2023-05-16T11:35:02;13.70;99.90
10314;DHT22;5202;49.138;10.090;2023-05-16T11:37:33;13.80;99.90
10314;DHT22;5202;49.138;10.090;2023-05-16T11:40:03;13.90;99.90
10314;DHT22;5202;49.138;10.090;2023-05-16T11:42:36;13.90;99.90
10314;DHT22;5202;49.138;10.090;2023-05-16T11:45:06;13.90;99.90
10314;DHT22;5202;49.138;10.090;2023-05-16T11:47:36;13.90;99.90
10314;DHT22;5202;49.138;10.090;2023-05-16T11:50:06;14.10;99.90
10314;DHT22;5202;49.138;10.090;2023-05-16T11:52:37;14.30;99.90
10314;DHT22;5202;49.138;10.090;2023-05-16T11:55:07;14.40;99.90
10314;DHT22;5202;49.138;10.090;2023-05-16T11:57:37;14.40;99.90
10314;DHT22;5202;49.138;10.090;2023-05-16T12:00:14;14.30;99.90
10314;DHT22;5202;49.138;10.090;2023-05-16T12:02:43;14.20;99.90
10314;DHT22;5202;49.138;10.090;2023-05-16T12:05:14;14.10;99.90
10314;DHT22;5202;49.138;10.090;2023-05-16T12:07:45;14.00;99.90
10314;DHT22;5202;49.138;10.090;2023-05-16T12:10:16;14.00;99.90
10314;DHT22;5202;49.138;10.090;2023-05-16T12:12:49;13.80;99.90
10314;DHT22;5202;49.138;10.090;2023-05-16T12:15:19;13.70;99.90
10314;DHT22;5202;49.138;10.090;2023-05-16T12:17:47;13.60;99.90
10314;DHT22;5202;49.138;10.090;2023-05-16T12:20:16;13.70;99.90
10314;DHT22;5202;49.138;10.090;2023-05-16T12:22:46;13.60;99.90
10314;DHT22;5202;49.138;10.090;2023-05-16T12:25:21;13.60;99.90
10314;DHT22;5202;49.138;10.090;2023-05-16T12:27:53;13.60;99.90
10314;DHT22;5202;49.138;10.090;2023-05-16T12:30:23;13.60;99.90
10314;DHT22;5202;49.138;10.090;2023-05-16T12:32:55;13.50;99.90
10314;DHT22;5202;49.138;10.090;2023-05-16T12:35:24;13.30;99.90
10314;DHT22;5202;49.138;10.090;2023-05-16T12:37:54;13.20;99.90
10314;DHT22;5202;49.138;10.090;2023-05-16T12:40:23;13.30;99.90
10314;DHT22;5202;49.138;10.090;2023-05-16T12:42:55;13.20;99.90
10314;DHT22;5202;49.138;10.090;2023-05-16T12:45:26;13.20;99.90
10314;DHT22;5202;49.138;10.090;2023-05-16T12:47:54;13.30;99.90
10314;DHT22;5202;49.138;10.090;2023-05-16T12:50:25;13.40;99.90
10314;DHT22;5202;49.138;10.090;2023-05-16T12:52:58;13.50;99.90
10314;DHT22;5202;49.138;10.090;2023-05-16T12:55:27;13.80;99.90
10314;DHT22;5202;49.138;10.090;2023-05-16T12:57:55;13.80;99.90
10314;DHT22;5202;49.138;10.090;2023-05-16T13:00:24;13.80;99.90
10314;DHT22;5202;49.138;10.090;2023-05-16T13:02:53;14.00;99.90
10314;DHT22;5202;49.138;10.090;2023-05-16T13:05:21;14.20;99.90
10314;DHT22;5202;49.138;10.090;2023-05-16T13:07:50;14.30;99.90
10314;DHT22;5202;49.138;10.090;2023-05-16T13:10:20;14.50;99.90
10314;DHT22;5202;49.138;10.090;2023-05-16T13:12:48;14.70;99.90
10314;DHT22;5202;49.138;10.090;2023-05-16T13:15:17;14.70;99.90
10314;DHT22;5202;49.138;10.090;2023-05-16T13:17:45;14.80;99.90
10314;DHT22;5202;49.138;10.090;2023-05-16T13:20:14;14.60;99.20
10314;DHT22;5202;49.138;10.090;2023-05-16T13:22:44;14.40;99.90
10314;DHT22;5202;49.138;10.090;2023-05-16T13:25:12;14.50;99.90
10314;DHT22;5202;49.138;10.090;2023-05-16T13:27:42;14.50;99.90
10314;DHT22;5202;49.138;10.090;2023-05-16T13:30:10;14.50;99.90
10314;DHT22;5202;49.138;10.090;2023-05-16T13:32:39;14.50;99.90
10314;DHT22;5202;49.138;10.090;2023-05-16T13:35:08;14.30;99.20
10314;DHT22;5202;49.138;10.090;2023-05-16T13:37:36;14.20;99.90
10314;DHT22;5202;49.138;10.090;2023-05-16T13:40:06;14.20;99.90
10314;DHT22;5202;49.138;10.090;2023-05-16T13:42:36;14.00;99.90
10314;DHT22;5202;49.138;10.090;2023-05-16T13:45:06;13.70;99.90
10314;DHT22;5202;49.138;10.090;2023-05-16T13:47:35;13.60;99.90
10314;DHT22;5202;49.138;10.090;2023-05-16T13:50:05;13.50;99.90
10314;DHT22;5202;49.138;10.090;2023-05-16T13:52:36;13.70;99.90
10314;DHT22;5202;49.138;10.090;2023-05-16T13:55:06;13.70;99.90
10314;DHT22;5202;49.138;10.090;2023-05-16T13:57:35;13.80;99.90
10314;DHT22;5202;49.138;10.090;2023-05-16T14:00:07;13.80;99.90
10314;DHT22;5202;49.138;10.090;2023-05-16T14:02:41;13.70;99.90
10314;DHT22;5202;49.138;10.090;2023-05-16T14:05:10;13.60;99.90
10314;DHT22;5202;49.138;10.090;2023-05-16T14:07:38;13.70;99.90
10314;DHT22;5202;49.138;10.090;2023-05-16T14:10:08;13.80;99.90
10314;DHT22;5202;49.138;10.090;2023-05-16T14:12:36;13.80;99.90
10314;DHT22;5202;49.138;10.090;2023-05-16T14:15:08;13.80;99.90
10314;DHT22;5202;49.138;10.090;2023-05-16T14:17:37;13.60;99.90
10314;DHT22;5202;49.138;10.090;2023-05-16T14:20:06;13.50;99.90
10314;DHT22;5202;49.138;10.090;2023-05-16T14:22:36;13.50;99.90
10314;DHT22;5202;49.138;10.090;2023-05-16T14:25:06;13.50;99.90
10314;DHT22;5202;49.138;10.090;2023-05-16T14:27:35;13.60;99.90
10314;DHT22;5202;49.138;10.090;2023-05-16T14:30:04;13.60;99.90
10314;DHT22;5202;49.138;10.090;2023-05-16T14:32:35;13.70;99.90
10314;DHT22;5202;49.138;10.090;2023-05-16T14:35:04;13.60;99.90
10314;DHT22;5202;49.138;10.090;2023-05-16T14:37:33;13.60;99.90
10314;DHT22;5202;49.138;10.090;2023-05-16T14:40:01;13.50;99.90
10314;DHT22;5202;49.138;10.090;2023-05-16T14:42:31;13.40;99.90
10314;DHT22;5202;49.138;10.090;2023-05-16T14:45:00;13.30;99.90
10314;DHT22;5202;49.138;10.090;2023-05-16T14:47:28;13.30;99.90
10314;DHT22;5202;49.138;10.090;2023-05-16T14:49:58;13.40;99.90
10314;DHT22;5202;49.138;10.090;2023-05-16T14:52:27;13.40;99.90
10314;DHT22;5202;49.138;10.090;2023-05-16T14:54:55;13.40;99.90
10314;DHT22;5202;49.138;10.090;2023-05-16T14:57:24;13.40;99.90
10314;DHT22;5202;49.138;10.090;2023-05-16T14:59:52;13.50;99.90
10314;DHT22;5202;49.138;10.090;2023-05-16T15:02:20;13.50;99.90
10314;DHT22;5202;49.138;10.090;2023-05-16T15:04:49;13.50;99.90
10314;DHT22;5202;49.138;10.090;2023-05-16T15:07:19;13.40;99.90
10314;DHT22;5202;49.138;10.090;2023-05-16T15:09:47;13.40;99.90
10314;DHT22;5202;49.138;10.090;2023-05-16T15:12:16;13.30;99.90
10314;DHT22;5202;49.138;10.090;2023-05-16T15:14:44;13.50;99.90
10314;DHT22;5202;49.138;10.090;2023-05-16T15:17:12;13.60;99.90
10314;DHT22;5202;49.138;10.090;2023-05-16T15:19:41;13.60;99.70
10314;DHT22;5202;49.138;10.090;2023-05-16T15:22:09;13.50;98.80
10314;DHT22;5202;49.138;10.090;2023-05-16T15:24:39;13.30;98.60
10314;DHT22;5202;49.138;10.090;2023-05-16T15:27:08;13.30;99.30
10314;DHT22;5202;49.138;10.090;2023-05-16T15:29:36;13.20;99.10
10314;DHT22;5202;49.138;10.090;2023-05-16T15:32:05;13.10;98.80
10314;DHT22;5202;49.138;10.090;2023-05-16T15:34:34;13.00;99.40
10314;DHT22;5202;49.138;10.090;2023-05-16T15:37:03;13.00;99.60
10314;DHT22;5202;49.138;10.090;2023-05-16T15:39:31;13.00;99.50
10314;DHT22;5202;49.138;10.090;2023-05-16T15:42:01;13.00;99.90
10314;DHT22;5202;49.138;10.090;2023-05-16T15:44:37;12.90;99.90
10314;DHT22;5202;49.138;10.090;2023-05-16T15:47:06;12.90;99.90
10314;DHT22;5202;49.138;10.090;2023-05-16T15:49:34;12.90;99.90
10314;DHT22;5202;49.138;10.090;2023-05-16T15:52:03;12.90;99.90
10314;DHT22;5202;49.138;10.090;2023-05-16T15:54:31;12.90;99.90